Track Медянцева Дарья

Time Latitude Longitude Accuracy (66% radius in meters) Altitude (meters) Speed (km/hour) Bearing (degrees) Battery (%) GPS flag
06:08:57 54.460579 53.537095 0 0 0 0 1 delete
06:08:54 54.460600 53.537141 0 0 0 0 1 delete
06:08:51 54.460617 53.537199 0 0 0 0 1 delete
06:08:42 54.460639 53.537231 0 0 0 0 1 delete
06:08:32 54.460612 53.537195 0 0 0 0 1 delete
06:08:27 54.460577 53.537218 0 0 0 0 1 delete
06:08:25 54.460573 53.537268 0 0 0 0 1 delete
06:08:23 54.460593 53.537314 0 0 0 0 1 delete
06:08:18 54.460570 53.537364 0 0 0 0 1 delete
06:08:09 54.460546 53.537391 0 0 0 0 1 delete
06:08:07 54.460572 53.537331 0 0 0 0 1 delete
06:08:06 54.460591 53.537287 0 0 0 0 1 delete
06:08:05 54.460617 53.537240 0 0 0 0 1 delete
06:08:04 54.460639 53.537200 0 0 0 0 1 delete
06:08:02 54.460664 53.537115 0 0 0 0 1 delete
06:07:55 54.460677 53.537051 0 0 0 0 1 delete
06:07:45 54.460671 53.537002 0 0 0 0 1 delete
06:07:42 54.460677 53.536939 0 0 0 0 1 delete
06:07:39 54.460669 53.536878 0 0 0 0 1 delete
06:07:35 54.460684 53.536813 0 0 0 0 1 delete
06:07:31 54.460712 53.536827 0 0 0 0 1 delete
06:07:27 54.460739 53.536818 0 0 0 0 1 delete
06:07:25 54.460755 53.536768 0 0 0 0 1 delete
06:07:23 54.460773 53.536730 0 0 0 0 1 delete
06:07:16 54.460800 53.536670 0 0 0 0 1 delete
06:07:09 54.460828 53.536696 0 0 0 0 1 delete
06:07:07 54.460844 53.536638 0 0 0 0 1 delete
06:07:05 54.460844 53.536578 0 0 0 0 1 delete
06:07:04 54.460851 53.536513 0 0 0 0 1 delete
06:07:02 54.460875 53.536420 0 0 0 0 1 delete
06:07:00 54.460890 53.536370 0 0 0 0 1 delete
06:06:58 54.460893 53.536277 0 0 0 0 1 delete
06:06:56 54.460912 53.536226 0 0 0 0 1 delete
06:06:53 54.460926 53.536174 0 0 0 0 1 delete
06:06:50 54.460931 53.536113 0 0 0 0 1 delete
06:06:44 54.460907 53.536077 0 0 0 0 1 delete
06:06:42 54.460926 53.536002 0 0 0 0 1 delete
06:06:36 54.460923 53.535931 0 0 0 0 1 delete
06:06:25 54.460897 53.535905 0 0 0 0 1 delete
06:06:22 54.460906 53.535857 0 0 0 0 1 delete
06:06:20 54.460906 53.535798 0 0 0 0 1 delete
06:06:15 54.460897 53.535742 0 0 0 0 1 delete
06:06:14 54.460902 53.535696 0 0 0 0 1 delete
06:06:13 54.460911 53.535630 0 0 0 0 1 delete
06:06:12 54.460918 53.535574 0 0 0 0 1 delete
06:06:11 54.460925 53.535522 0 0 0 0 1 delete
06:06:10 54.460930 53.535464 0 0 0 0 1 delete
06:06:09 54.460936 53.535415 0 0 0 0 1 delete
06:06:08 54.460938 53.535366 0 0 0 0 1 delete
06:06:06 54.460933 53.535274 0 0 0 0 1 delete